createdAt,value
2018-08-11T00:00:41.363Z,101583.97
2018-08-11T00:01:45.518Z,101586.67
2018-08-11T00:02:50.364Z,101591.56
2018-08-11T00:03:54.549Z,101591.56
2018-08-11T00:04:58.740Z,101592.91
2018-08-11T00:06:02.946Z,101594.61
2018-08-11T00:07:07.126Z,101594.11
2018-08-11T00:08:11.287Z,101590.91
2018-08-11T00:09:15.472Z,101597.16
2018-08-11T00:10:19.826Z,101599.31
2018-08-11T00:11:24.030Z,101592.91
2018-08-11T00:12:28.191Z,101594.27
2018-08-11T00:13:32.427Z,101593.26
2018-08-11T00:14:36.678Z,101593.61
2018-08-11T00:15:40.898Z,101589.91
2018-08-11T00:16:45.127Z,101588.90
2018-08-11T00:17:49.365Z,101585.19
2018-08-11T00:18:53.525Z,101583.84
2018-08-11T00:19:57.921Z,101586.35
2018-08-11T00:21:02.096Z,101581.95
2018-08-11T00:22:06.806Z,101583.66
2018-08-11T00:23:10.990Z,101588.20
2018-08-11T00:24:15.142Z,101593.61
2018-08-11T00:25:19.459Z,101593.45
2018-08-11T00:26:23.664Z,101594.45
2018-08-11T00:27:31.797Z,101593.61
2018-08-11T00:28:36.127Z,101596.97
2018-08-11T00:29:40.319Z,101599.31
2018-08-11T00:30:44.482Z,101597.31
2018-08-11T00:31:48.696Z,101599.35
2018-08-11T00:32:52.870Z,101600.86
2018-08-11T00:33:57.054Z,101605.75
2018-08-11T00:35:01.299Z,101608.10
2018-08-11T00:36:05.505Z,101606.09
2018-08-11T00:37:09.709Z,101614.88
2018-08-11T00:38:13.914Z,101613.52
2018-08-11T00:39:18.078Z,101630.06
2018-08-11T00:40:22.631Z,101635.45
2018-08-11T00:41:26.956Z,101636.79
2018-08-11T00:42:31.118Z,101636.97
2018-08-11T00:43:35.352Z,101633.09
2018-08-11T00:44:39.521Z,101643.87
2018-08-11T00:45:43.761Z,101646.25
2018-08-11T00:46:47.902Z,101661.23
2018-08-11T00:47:52.443Z,101659.38
2018-08-11T00:48:56.889Z,101663.75
2018-08-11T00:50:01.287Z,101660.72
2018-08-11T00:51:05.517Z,101663.91
2018-08-11T00:52:09.795Z,101665.09
2018-08-11T00:53:14.042Z,101664.07
2018-08-11T00:54:18.258Z,101667.59
2018-08-11T00:55:22.455Z,101664.85
2018-08-11T00:56:26.630Z,101672.07
2018-08-11T00:57:30.939Z,101678.13
2018-08-11T00:58:35.102Z,101682.47
2018-08-11T00:59:39.348Z,101683.45
2018-08-11T01:00:43.535Z,101692.36
2018-08-11T01:01:47.747Z,101695.23
2018-08-11T01:02:51.952Z,101699.42
2018-08-11T01:03:56.196Z,101702.62
2018-08-11T01:05:00.424Z,101703.30
2018-08-11T01:06:04.634Z,101710.18
2018-08-11T01:07:08.937Z,101705.27
2018-08-11T01:08:13.183Z,101714.48
2018-08-11T01:09:17.366Z,101706.88
2018-08-11T01:10:21.588Z,101715.20
2018-08-11T01:11:25.792Z,101706.67
2018-08-11T01:12:29.978Z,101714.99
2018-08-11T01:13:34.185Z,101712.57
2018-08-11T01:14:38.345Z,101717.69
2018-08-11T01:15:42.565Z,101713.75
2018-08-11T01:16:46.767Z,101716.52
2018-08-11T01:17:51.479Z,101709.88
2018-08-11T01:18:55.667Z,101706.24
2018-08-11T01:19:59.939Z,101704.97
2018-08-11T01:21:04.134Z,101702.86
2018-08-11T01:22:08.553Z,101704.47
2018-08-11T01:23:12.734Z,101703.73
2018-08-11T01:24:16.918Z,101702.34
2018-08-11T01:25:21.130Z,101700.97
2018-08-11T01:26:25.345Z,101704.28
2018-08-11T01:27:29.607Z,101700.92
2018-08-11T01:28:33.838Z,101709.28
2018-08-11T01:29:38.118Z,101709.59
2018-08-11T01:30:42.278Z,101724.01
2018-08-11T01:31:46.495Z,101722.61
2018-08-11T01:32:50.702Z,101722.61
2018-08-11T01:33:54.874Z,101719.43
2018-08-11T01:34:59.052Z,101713.86
2018-08-11T01:36:03.206Z,101712.16
2018-08-11T01:37:07.443Z,101711.48
2018-08-11T01:38:11.602Z,101716.11
2018-08-11T01:39:15.774Z,101716.91
2018-08-11T01:40:19.990Z,101718.37
2018-08-11T01:41:24.835Z,101717.53
2018-08-11T01:42:29.022Z,101722.90
2018-08-11T01:43:33.201Z,101719.03
2018-08-11T01:44:37.464Z,101713.66
2018-08-11T01:45:41.651Z,101710.48
2018-08-11T01:46:45.838Z,101710.81
2018-08-11T01:47:50.099Z,101710.67
2018-08-11T01:48:54.246Z,101717.75
2018-08-11T01:49:58.530Z,101714.41
2018-08-11T01:51:02.898Z,101705.98
2018-08-11T01:52:07.142Z,101708.84
2018-08-11T01:53:11.326Z,101709.27
2018-08-11T01:54:15.582Z,101710.06
2018-08-11T01:55:19.761Z,101707.19
2018-08-11T01:56:24.147Z,101709.68
2018-08-11T01:57:28.330Z,101701.07
2018-08-11T01:58:32.498Z,101691.97
2018-08-11T01:59:36.683Z,101683.91
2018-08-11T02:00:41.189Z,101668.65
2018-08-11T02:01:45.330Z,101672.21
2018-08-11T02:02:49.605Z,101666.54
2018-08-11T02:03:53.827Z,101666.79
2018-08-11T02:04:58.046Z,101669.53
2018-08-11T02:06:02.375Z,101674.77
2018-08-11T02:07:06.624Z,101674.77
2018-08-11T02:08:10.989Z,101671.73
2018-08-11T02:09:15.309Z,101673.92
2018-08-11T02:10:20.845Z,101673.75
2018-08-11T02:11:25.039Z,101670.08
2018-08-11T02:12:29.295Z,101665.06
2018-08-11T02:13:33.496Z,101667.09
2018-08-11T02:14:37.807Z,101673.45
2018-08-11T02:15:41.970Z,101682.53
2018-08-11T02:16:46.163Z,101678.80
2018-08-11T02:17:50.341Z,101683.81
2018-08-11T02:18:54.607Z,101682.83
2018-08-11T02:19:58.938Z,101680.14
2018-08-11T02:21:03.105Z,101685.16
2018-08-11T02:22:07.350Z,101681.13
2018-08-11T02:23:11.549Z,101680.77
2018-08-11T02:24:15.755Z,101678.94
2018-08-11T02:25:20.112Z,101682.11
2018-08-11T02:26:24.495Z,101676.73
2018-08-11T02:27:28.662Z,101677.95
2018-08-11T02:28:33.098Z,101685.22
2018-08-11T02:29:37.266Z,101693.27
2018-08-11T02:30:41.474Z,101690.23
2018-08-11T02:31:45.670Z,101695.96
2018-08-11T02:32:49.867Z,101695.60
2018-08-11T02:33:54.074Z,101699.80
2018-08-11T02:34:58.244Z,101698.95
2018-08-11T02:36:02.562Z,101700.42
2018-08-11T02:37:06.884Z,101701.63
2018-08-11T02:38:11.139Z,101699.58
2018-08-11T02:39:15.709Z,101702.26
2018-08-11T02:40:20.105Z,101698.39
2018-08-11T02:41:24.322Z,101703.41
2018-08-11T02:42:28.727Z,101703.22
2018-08-11T02:43:32.904Z,101704.56
2018-08-11T02:44:37.225Z,101704.07
2018-08-11T02:45:41.362Z,101706.27
2018-08-11T02:46:45.565Z,101708.42
2018-08-11T02:47:49.755Z,101705.91
2018-08-11T02:48:53.963Z,101704.37
2018-08-11T02:49:58.124Z,101712.56
2018-08-11T02:51:02.667Z,101699.79
2018-08-11T02:52:06.875Z,101707.48
2018-08-11T02:53:11.038Z,101706.08
2018-08-11T02:54:15.384Z,101706.38
2018-08-11T02:55:19.526Z,101712.41
2018-08-11T02:56:23.710Z,101708.67
2018-08-11T02:57:28.058Z,101707.63
2018-08-11T02:58:32.200Z,101707.27
2018-08-11T02:59:36.358Z,101706.58
2018-08-11T03:00:40.686Z,101714.28
2018-08-11T03:01:44.907Z,101710.94
2018-08-11T03:02:49.267Z,101707.20
2018-08-11T03:03:53.743Z,101711.23
2018-08-11T03:04:57.890Z,101713.42
2018-08-11T03:06:02.188Z,101713.92
2018-08-11T03:07:07.098Z,101713.53
2018-08-11T03:08:11.306Z,101715.52
2018-08-11T03:09:15.482Z,101719.55
2018-08-11T03:10:19.960Z,101720.40
2018-08-11T03:11:24.162Z,101714.67
2018-08-11T03:12:28.431Z,101716.67
2018-08-11T03:13:32.602Z,101722.03
2018-08-11T03:14:36.806Z,101716.80
2018-08-11T03:15:41.035Z,101717.29
2018-08-11T03:16:45.204Z,101710.74
2018-08-11T03:17:49.374Z,101715.62
2018-08-11T03:18:53.547Z,101712.45
2018-08-11T03:19:58.107Z,101713.13
2018-08-11T03:21:02.261Z,101718.50
2018-08-11T03:22:06.462Z,101720.83
2018-08-11T03:23:10.611Z,101724.52
2018-08-11T03:24:14.778Z,101729.17
2018-08-11T03:25:19.032Z,101728.84
2018-08-11T03:26:23.195Z,101725.44
2018-08-11T03:27:27.375Z,101724.09
2018-08-11T03:28:31.518Z,101722.39
2018-08-11T03:29:35.694Z,101735.33
2018-08-11T03:30:39.871Z,101733.78
2018-08-11T03:31:44.091Z,101736.47
2018-08-11T03:32:48.278Z,101739.64
2018-08-11T03:33:52.574Z,101739.80
2018-08-11T03:34:56.866Z,101743.27
2018-08-11T03:36:01.347Z,101739.38
2018-08-11T03:37:05.645Z,101739.38
2018-08-11T03:38:09.938Z,101738.52
2018-08-11T03:39:14.138Z,101740.23
2018-08-11T03:40:18.404Z,101736.36
2018-08-11T03:41:22.526Z,101731.62
2018-08-11T03:42:26.677Z,101733.31
2018-08-11T03:43:30.945Z,101731.48
2018-08-11T03:44:35.134Z,101733.68
2018-08-11T03:45:39.306Z,101732.66
2018-08-11T03:46:43.459Z,101732.05
2018-08-11T03:47:47.647Z,101735.06
2018-08-11T03:48:51.794Z,101733.72
2018-08-11T03:49:56.044Z,101731.75
2018-08-11T03:51:00.222Z,101734.77
2018-08-11T03:52:04.741Z,101734.14
2018-08-11T03:53:08.888Z,101735.13
2018-08-11T03:54:13.022Z,101740.30
2018-08-11T03:55:17.172Z,101740.30
2018-08-11T03:56:21.330Z,101737.74
2018-08-11T03:57:25.492Z,101738.23
2018-08-11T03:58:29.601Z,101736.89
2018-08-11T03:59:33.801Z,101742.42
2018-08-11T04:00:38.103Z,101741.73
2018-08-11T04:01:42.234Z,101738.69
2018-08-11T04:02:46.539Z,101739.05
2018-08-11T04:03:50.669Z,101740.52
2018-08-11T04:04:54.828Z,101741.20
2018-08-11T04:05:58.954Z,101743.77
2018-08-11T04:07:03.098Z,101746.80
2018-08-11T04:08:07.274Z,101747.86
2018-08-11T04:09:11.472Z,101745.17
2018-08-11T04:10:15.649Z,101749.69
2018-08-11T04:11:19.772Z,101749.89
2018-08-11T04:12:23.943Z,101752.94
2018-08-11T04:13:28.222Z,101750.94
2018-08-11T04:14:32.452Z,101758.14
2018-08-11T04:15:36.602Z,101756.80
2018-08-11T04:16:40.882Z,101763.38
2018-08-11T04:17:45.186Z,101766.06
2018-08-11T04:18:49.295Z,101766.75
2018-08-11T04:19:53.450Z,101772.32
2018-08-11T04:20:59.006Z,101779.89
2018-08-11T04:22:03.145Z,101775.53
2018-08-11T04:23:07.401Z,101776.88
2018-08-11T04:24:11.644Z,101776.64
2018-08-11T04:25:15.786Z,101775.46
2018-08-11T04:26:20.074Z,101779.48
2018-08-11T04:27:24.365Z,101775.09
2018-08-11T04:28:28.514Z,101776.44
2018-08-11T04:29:32.635Z,101772.05
2018-08-11T04:30:36.755Z,101774.41
2018-08-11T04:31:40.890Z,101776.08
2018-08-11T04:32:45.084Z,101775.39
2018-08-11T04:33:49.225Z,101779.42
2018-08-11T04:34:53.354Z,101776.37
2018-08-11T04:35:57.482Z,101779.22
2018-08-11T04:37:01.591Z,101776.66
2018-08-11T04:38:05.714Z,101780.36
2018-08-11T04:39:10.099Z,101778.66
2018-08-11T04:40:14.416Z,101780.65
2018-08-11T04:41:18.581Z,101777.11
2018-08-11T04:42:22.746Z,101776.26
2018-08-11T04:43:26.897Z,101780.77
2018-08-11T04:44:31.256Z,101783.45
2018-08-11T04:45:35.390Z,101787.97
2018-08-11T04:46:39.557Z,101777.23
2018-08-11T04:47:43.858Z,101783.25
2018-08-11T04:48:47.981Z,101785.58
2018-08-11T04:49:52.182Z,101794.61
2018-08-11T04:50:56.325Z,101792.94
2018-08-11T04:52:00.570Z,101790.25
2018-08-11T04:53:05.171Z,101794.05
2018-08-11T04:54:09.390Z,101795.91
2018-08-11T04:55:13.550Z,101800.55
2018-08-11T04:56:17.714Z,101798.52
2018-08-11T04:57:22.108Z,101807.22
2018-08-11T04:58:26.234Z,101803.68
2018-08-11T04:59:30.401Z,101806.48
2018-08-11T05:00:34.606Z,101810.15
2018-08-11T05:01:38.786Z,101811.48
2018-08-11T05:02:42.954Z,101809.66
2018-08-11T05:03:47.135Z,101810.72
2018-08-11T05:04:51.621Z,101811.08
2018-08-11T05:05:55.790Z,101809.94
2018-08-11T05:06:59.958Z,101816.65
2018-08-11T05:08:04.159Z,101816.52
2018-08-11T05:09:09.146Z,101826.24
2018-08-11T05:10:13.295Z,101824.41
2018-08-11T05:11:17.494Z,101824.78
2018-08-11T05:12:21.666Z,101825.63
2018-08-11T05:13:25.926Z,101832.34
2018-08-11T05:14:30.079Z,101829.50
2018-08-11T05:15:34.262Z,101832.91
2018-08-11T05:16:38.518Z,101834.45
2018-08-11T05:17:42.678Z,101831.35
2018-08-11T05:18:46.854Z,101841.80
2018-08-11T05:19:51.205Z,101831.76
2018-08-11T05:20:55.373Z,101842.20
2018-08-11T05:21:59.563Z,101840.58
2018-08-11T05:23:03.762Z,101839.96
2018-08-11T05:24:08.223Z,101844.19
2018-08-11T05:25:12.382Z,101839.71
2018-08-11T05:26:16.603Z,101845.06
2018-08-11T05:27:20.853Z,101835.38
2018-08-11T05:28:25.006Z,101840.81
2018-08-11T05:29:29.163Z,101838.69
2018-08-11T05:30:33.366Z,101845.44
2018-08-11T05:31:37.649Z,101840.80
2018-08-11T05:32:41.919Z,101838.44
2018-08-11T05:33:46.052Z,101839.45
2018-08-11T05:34:50.419Z,101846.30
2018-08-11T05:35:54.570Z,101843.41
2018-08-11T05:36:58.729Z,101841.38
2018-08-11T05:38:02.935Z,101847.73
2018-08-11T05:39:12.265Z,101843.50
2018-08-11T05:40:16.502Z,101848.14
2018-08-11T05:41:20.690Z,101846.11
2018-08-11T05:42:24.895Z,101852.47
2018-08-11T05:43:29.101Z,101851.48
2018-08-11T05:44:33.277Z,101848.59
2018-08-11T05:45:37.587Z,101855.80
2018-08-11T05:46:41.726Z,101856.13
2018-08-11T05:47:46.113Z,101861.73
2018-08-11T05:48:50.299Z,101862.30
2018-08-11T05:49:54.565Z,101858.83
2018-08-11T05:50:58.746Z,101858.88
2018-08-11T05:52:02.942Z,101861.14
2018-08-11T05:53:07.366Z,101860.19
2018-08-11T05:54:11.521Z,101862.66
2018-08-11T05:55:15.782Z,101865.19
2018-08-11T05:56:19.911Z,101866.13
2018-08-11T05:57:24.091Z,101869.50
2018-08-11T05:58:28.400Z,101863.86
2018-08-11T05:59:32.579Z,101865.46
2018-08-11T06:00:36.709Z,101862.83
2018-08-11T06:01:40.866Z,101858.80
2018-08-11T06:02:45.074Z,101866.87
2018-08-11T06:03:49.196Z,101868.16
2018-08-11T06:04:53.357Z,101866.78
2018-08-11T06:05:57.479Z,101867.70
2018-08-11T06:07:01.619Z,101871.67
2018-08-11T06:08:06.115Z,101869.34
2018-08-11T06:09:10.974Z,101866.36
2018-08-11T06:10:15.130Z,101873.80
2018-08-11T06:11:19.304Z,101871.66
2018-08-11T06:12:23.462Z,101870.64
2018-08-11T06:13:27.609Z,101876.09
2018-08-11T06:14:31.777Z,101877.30
2018-08-11T06:15:36.457Z,101872.24
2018-08-11T06:16:40.669Z,101889.39
2018-08-11T06:17:44.844Z,101882.67
2018-08-11T06:18:49.072Z,101879.69
2018-08-11T06:19:53.224Z,101877.68
2018-08-11T06:20:57.490Z,101882.95
2018-08-11T06:22:01.634Z,101885.19
2018-08-11T06:23:06.049Z,101884.75
2018-08-11T06:24:10.228Z,101896.39
2018-08-11T06:25:14.548Z,101891.06
2018-08-11T06:26:18.741Z,101891.78
2018-08-11T06:27:22.922Z,101894.86
2018-08-11T06:28:27.086Z,101893.08
2018-08-11T06:29:31.328Z,101893.95
2018-08-11T06:30:35.567Z,101896.34
2018-08-11T06:31:39.804Z,101897.19
2018-08-11T06:32:44.082Z,101897.36
2018-08-11T06:33:48.182Z,101900.05
2018-08-11T06:34:52.662Z,101897.85
2018-08-11T06:35:56.895Z,101902.52
2018-08-11T06:37:01.210Z,101897.49
2018-08-11T06:38:05.365Z,101899.03
2018-08-11T06:39:12.125Z,101902.45
2018-08-11T06:40:16.291Z,101903.55
2018-08-11T06:41:20.461Z,101900.06
2018-08-11T06:42:24.638Z,101900.30
2018-08-11T06:43:28.861Z,101902.69
2018-08-11T06:44:32.994Z,101903.41
2018-08-11T06:45:37.272Z,101901.53
2018-08-11T06:46:41.494Z,101901.34
2018-08-11T06:47:45.683Z,101905.05
2018-08-11T06:48:49.841Z,101903.35
2018-08-11T06:49:53.982Z,101906.72
2018-08-11T06:50:58.326Z,101907.44
2018-08-11T06:52:02.524Z,101911.31
2018-08-11T06:53:06.778Z,101911.17
2018-08-11T06:54:11.298Z,101915.53
2018-08-11T06:55:15.450Z,101913.20
2018-08-11T06:56:19.590Z,101913.39
2018-08-11T06:57:23.742Z,101917.28
2018-08-11T06:58:27.891Z,101916.62
2018-08-11T06:59:32.038Z,101916.62
2018-08-11T07:00:36.188Z,101915.99
2018-08-11T07:01:40.327Z,101923.22
2018-08-11T07:02:44.497Z,101919.98
2018-08-11T07:03:48.652Z,101919.44
2018-08-11T07:04:52.818Z,101923.61
2018-08-11T07:05:56.951Z,101925.27
2018-08-11T07:07:01.361Z,101923.73
2018-08-11T07:08:05.510Z,101926.59
2018-08-11T07:09:10.590Z,101922.82
2018-08-11T07:10:14.827Z,101922.31
2018-08-11T07:11:19.424Z,101926.48
2018-08-11T07:12:23.570Z,101922.94
2018-08-11T07:13:27.703Z,101925.27
2018-08-11T07:14:31.870Z,101922.94
2018-08-11T07:15:36.007Z,101929.17
2018-08-11T07:16:40.130Z,101920.25
2018-08-11T07:17:44.265Z,101925.81
2018-08-11T07:18:48.839Z,101933.27
2018-08-11T07:19:53.169Z,101928.42
2018-08-11T07:20:57.477Z,101925.92
2018-08-11T07:22:01.604Z,101932.34
2018-08-11T07:23:05.784Z,101931.19
2018-08-11T07:24:09.990Z,101925.67
2018-08-11T07:25:14.138Z,101932.59
2018-08-11T07:26:18.335Z,101928.69
2018-08-11T07:27:22.502Z,101934.73
2018-08-11T07:28:26.801Z,101935.05
2018-08-11T07:29:31.118Z,101931.31
2018-08-11T07:30:35.342Z,101934.49
2018-08-11T07:31:40.138Z,101932.60
2018-08-11T07:32:44.761Z,101937.63
2018-08-11T07:33:48.974Z,101935.65
2018-08-11T07:34:53.272Z,101943.06
2018-08-11T07:35:57.451Z,101944.95
2018-08-11T07:37:01.681Z,101942.45
2018-08-11T07:38:06.026Z,101946.19
2018-08-11T07:39:10.462Z,101943.72
2018-08-11T07:40:14.623Z,101946.73
2018-08-11T07:41:18.819Z,101942.55
2018-08-11T07:42:22.942Z,101946.59
2018-08-11T07:43:27.331Z,101939.51
2018-08-11T07:44:31.421Z,101947.27
2018-08-11T07:45:35.732Z,101945.91
2018-08-11T07:46:40.087Z,101941.70
2018-08-11T07:47:44.243Z,101948.30
2018-08-11T07:48:48.405Z,101946.29
2018-08-11T07:49:52.757Z,101946.83
2018-08-11T07:50:56.890Z,101952.80
2018-08-11T07:52:01.079Z,101946.42
2018-08-11T07:53:05.376Z,101952.48
2018-08-11T07:54:09.578Z,101951.33
2018-08-11T07:55:13.981Z,101952.19
2018-08-11T07:56:18.179Z,101952.73
2018-08-11T07:57:22.382Z,101956.45
2018-08-11T07:58:33.291Z,101951.75
2018-08-11T07:59:37.460Z,101959.34
2018-08-11T08:00:41.618Z,101959.83
2018-08-11T08:01:45.780Z,101965.08
2018-08-11T08:02:49.988Z,101957.50
2018-08-11T08:03:54.577Z,101958.70
2018-08-11T08:04:58.966Z,101959.34
2018-08-11T08:06:03.218Z,101963.55
2018-08-11T08:07:07.411Z,101960.00
2018-08-11T08:08:11.584Z,101966.73
2018-08-11T08:09:15.766Z,101960.00
2018-08-11T08:10:20.142Z,101962.70
2018-08-11T08:11:24.474Z,101963.69
2018-08-11T08:12:28.747Z,101962.70
2018-08-11T08:13:32.959Z,101963.73
2018-08-11T08:14:37.094Z,101963.12
2018-08-11T08:15:41.463Z,101961.64
2018-08-11T08:16:45.644Z,101959.84
2018-08-11T08:17:49.806Z,101960.88
2018-08-11T08:18:53.979Z,101965.61
2018-08-11T08:19:58.182Z,101965.78
2018-08-11T08:21:02.387Z,101959.40
2018-08-11T08:22:07.130Z,101958.87
2018-08-11T08:23:11.317Z,101961.92
2018-08-11T08:24:15.518Z,101962.27
2018-08-11T08:25:19.870Z,101966.13
2018-08-11T08:26:24.219Z,101960.75
2018-08-11T08:27:28.292Z,101956.70
2018-08-11T08:28:32.539Z,101956.39
2018-08-11T08:29:36.689Z,101963.80
2018-08-11T08:30:40.855Z,101950.51
2018-08-11T08:31:45.055Z,101960.27
2018-08-11T08:32:49.238Z,101958.60
2018-08-11T08:33:53.503Z,101955.95
2018-08-11T08:34:57.710Z,101953.61
2018-08-11T08:36:02.359Z,101956.98
2018-08-11T08:37:06.590Z,101953.62
2018-08-11T08:38:10.773Z,101960.40
2018-08-11T08:39:15.001Z,101958.23
2018-08-11T08:40:19.309Z,101952.39
2018-08-11T08:41:23.821Z,101954.77
2018-08-11T08:42:27.977Z,101952.44
2018-08-11T08:43:32.231Z,101953.89
2018-08-11T08:44:36.494Z,101946.66
2018-08-11T08:45:40.934Z,101947.22
2018-08-11T08:46:45.590Z,101946.58
2018-08-11T08:47:49.768Z,101947.82
2018-08-11T08:48:53.947Z,101949.70
2018-08-11T08:49:58.281Z,101952.28
2018-08-11T08:51:02.475Z,101947.09
2018-08-11T08:52:06.897Z,101943.03
2018-08-11T08:53:11.080Z,101952.48
2018-08-11T08:54:15.245Z,101947.77
2018-08-11T08:55:19.835Z,101954.50
2018-08-11T08:56:24.007Z,101948.78
2018-08-11T08:57:28.175Z,101948.31
2018-08-11T08:58:32.322Z,101952.88
2018-08-11T08:59:36.644Z,101945.66
2018-08-11T09:00:40.946Z,101951.94
2018-08-11T09:01:45.127Z,101958.50
2018-08-11T09:02:49.286Z,101945.51
2018-08-11T09:03:53.433Z,101944.84
2018-08-11T09:04:57.649Z,101952.75
2018-08-11T09:06:01.702Z,101947.56
2018-08-11T09:07:05.895Z,101943.83
2018-08-11T09:08:10.178Z,101939.13
2018-08-11T09:09:14.307Z,101946.26
2018-08-11T09:10:18.584Z,101941.38
2018-08-11T09:11:22.726Z,101941.22
2018-08-11T09:12:26.922Z,101948.51
2018-08-11T09:13:31.102Z,101953.09
2018-08-11T09:14:35.212Z,101955.48
2018-08-11T09:15:39.366Z,101961.57
2018-08-11T09:16:43.519Z,101952.97
2018-08-11T09:17:47.654Z,101952.44
2018-08-11T09:18:52.190Z,101948.91
2018-08-11T09:19:56.333Z,101948.38
2018-08-11T09:21:00.539Z,101943.84
2018-08-11T09:22:04.659Z,101945.84
2018-08-11T09:23:09.030Z,101947.86
2018-08-11T09:24:13.260Z,101946.67
2018-08-11T09:25:17.419Z,101944.80
2018-08-11T09:26:21.562Z,101945.30
2018-08-11T09:27:25.705Z,101950.20
2018-08-11T09:28:29.878Z,101955.45
2018-08-11T09:29:34.019Z,101954.45
2018-08-11T09:30:38.161Z,101963.39
2018-08-11T09:31:42.314Z,101959.87
2018-08-11T09:32:46.531Z,101962.87
2018-08-11T09:33:50.723Z,101955.93
2018-08-11T09:34:54.850Z,101963.19
2018-08-11T09:35:59.204Z,101957.94
2018-08-11T09:37:03.306Z,101964.04
2018-08-11T09:38:07.454Z,101962.86
2018-08-11T09:39:12.433Z,101959.48
2018-08-11T09:40:16.565Z,101960.68
2018-08-11T09:41:20.717Z,101958.48
2018-08-11T09:42:24.855Z,101955.43
2018-08-11T09:43:28.985Z,101962.86
2018-08-11T09:44:33.256Z,101955.94
2018-08-11T09:45:37.396Z,101962.19
2018-08-11T09:46:41.531Z,101959.14
2018-08-11T09:47:45.694Z,101954.73
2018-08-11T09:48:49.870Z,101958.44
2018-08-11T09:49:53.990Z,101957.09
2018-08-11T09:50:58.135Z,101957.79
2018-08-11T09:52:02.384Z,101962.69
2018-08-11T09:53:06.606Z,101959.49
2018-08-11T09:54:10.794Z,101952.04
2018-08-11T09:55:14.935Z,101957.27
2018-08-11T09:56:19.261Z,101960.65
2018-08-11T09:57:23.408Z,101956.39
2018-08-11T09:58:27.781Z,101961.63
2018-08-11T09:59:31.938Z,101959.25
2018-08-11T10:00:41.337Z,101950.80
2018-08-11T10:01:46.862Z,101951.50
2018-08-11T10:02:52.690Z,101948.30
2018-08-11T10:03:56.935Z,101947.81
2018-08-11T10:05:01.161Z,101946.16
2018-08-11T10:06:05.278Z,101961.02
2018-08-11T10:07:09.414Z,101948.05
2018-08-11T10:08:13.558Z,101945.68
2018-08-11T10:09:17.682Z,101946.71
2018-08-11T10:10:21.806Z,101943.34
2018-08-11T10:11:26.146Z,101946.41
2018-08-11T10:12:30.310Z,101949.77
2018-08-11T10:13:34.433Z,101947.42
2018-08-11T10:14:38.598Z,101953.51
2018-08-11T10:15:43.041Z,101948.09
2018-08-11T10:16:47.296Z,101940.66
2018-08-11T10:17:51.422Z,101954.15
2018-08-11T10:18:55.579Z,101948.23
2018-08-11T10:19:59.719Z,101946.36
2018-08-11T10:21:04.074Z,101944.84
2018-08-11T10:22:08.267Z,101947.37
2018-08-11T10:23:12.393Z,101940.28
2018-08-11T10:24:16.537Z,101945.70
2018-08-11T10:25:20.685Z,101948.41
2018-08-11T10:26:24.994Z,101952.64
2018-08-11T10:27:29.162Z,101948.44
2018-08-11T10:28:33.317Z,101947.26
2018-08-11T10:29:37.472Z,101943.05
2018-08-11T10:30:41.653Z,101943.87
2018-08-11T10:31:45.868Z,101944.72
2018-08-11T10:32:50.031Z,101949.80
2018-08-11T10:33:54.184Z,101952.51
2018-08-11T10:34:58.330Z,101947.41
2018-08-11T10:36:02.680Z,101945.05
2018-08-11T10:37:06.806Z,101962.11
2018-08-11T10:38:10.990Z,101953.98
2018-08-11T10:39:15.189Z,101952.16
2018-08-11T10:40:19.435Z,101944.03
2018-08-11T10:41:23.604Z,101950.09
2018-08-11T10:42:27.722Z,101952.48
2018-08-11T10:43:32.199Z,101949.59
2018-08-11T10:44:36.317Z,101949.44
2018-08-11T10:45:40.633Z,101944.70
2018-08-11T10:46:44.767Z,101946.41
2018-08-11T10:47:49.009Z,101942.19
2018-08-11T10:48:53.178Z,101942.52
2018-08-11T10:49:57.358Z,101943.88
2018-08-11T10:51:01.520Z,101934.80
2018-08-11T10:52:05.861Z,101929.88
2018-08-11T10:53:10.214Z,101932.25
2018-08-11T10:54:14.385Z,101936.62
2018-08-11T10:55:18.537Z,101937.14
2018-08-11T10:56:22.950Z,101935.60
2018-08-11T10:57:27.138Z,101929.84
2018-08-11T10:58:31.309Z,101931.89
2018-08-11T10:59:36.088Z,101922.73
2018-08-11T11:00:40.287Z,101927.14
2018-08-11T11:01:44.627Z,101921.03
2018-08-11T11:02:48.763Z,101925.41
2018-08-11T11:03:52.974Z,101922.88
2018-08-11T11:04:57.167Z,101928.78
2018-08-11T11:06:01.315Z,101930.79
2018-08-11T11:07:05.554Z,101929.43
2018-08-11T11:08:09.700Z,101932.29
2018-08-11T11:09:13.995Z,101933.48
2018-08-11T11:10:18.194Z,101942.11
2018-08-11T11:11:22.374Z,101937.89
2018-08-11T11:12:26.571Z,101935.86
2018-08-11T11:13:30.713Z,101935.20
2018-08-11T11:14:34.905Z,101933.55
2018-08-11T11:15:39.090Z,101938.61
2018-08-11T11:16:43.294Z,101932.16
2018-08-11T11:17:47.450Z,101933.70
2018-08-11T11:18:51.623Z,101937.27
2018-08-11T11:19:55.790Z,101932.36
2018-08-11T11:20:59.971Z,101935.91
2018-08-11T11:22:04.174Z,101939.13
2018-08-11T11:23:08.374Z,101939.28
2018-08-11T11:24:12.575Z,101943.69
2018-08-11T11:25:16.762Z,101933.90
2018-08-11T11:26:21.103Z,101943.18
2018-08-11T11:27:25.410Z,101936.61
2018-08-11T11:28:29.555Z,101939.63
2018-08-11T11:29:33.716Z,101940.32
2018-08-11T11:30:38.065Z,101936.45
2018-08-11T11:31:42.245Z,101938.47
2018-08-11T11:32:46.476Z,101935.25
2018-08-11T11:33:50.653Z,101934.75
2018-08-11T11:34:54.834Z,101926.60
2018-08-11T11:35:59.217Z,101929.46
2018-08-11T11:37:03.418Z,101934.87
2018-08-11T11:38:07.602Z,101934.39
2018-08-11T11:39:11.807Z,101940.80
2018-08-11T11:40:15.971Z,101935.20
2018-08-11T11:41:20.321Z,101936.55
2018-08-11T11:42:24.466Z,101939.25
2018-08-11T11:43:28.829Z,101933.29
2018-08-11T11:44:32.886Z,101933.79
2018-08-11T11:45:37.037Z,101934.44
2018-08-11T11:46:41.178Z,101939.34
2018-08-11T11:47:45.446Z,101938.82
2018-08-11T11:48:49.582Z,101935.41
2018-08-11T11:49:53.769Z,101936.58
2018-08-11T11:50:57.978Z,101939.28
2018-08-11T11:52:02.253Z,101943.88
2018-08-11T11:53:06.886Z,101942.69
2018-08-11T11:54:11.192Z,101937.77
2018-08-11T11:55:15.334Z,101943.19
2018-08-11T11:56:19.500Z,101942.84
2018-08-11T11:57:23.938Z,101938.61
2018-08-11T11:58:28.117Z,101940.46
2018-08-11T11:59:32.282Z,101937.73
2018-08-11T12:00:36.527Z,101943.45
2018-08-11T12:01:40.654Z,101936.33
2018-08-11T12:02:45.039Z,101934.11
2018-08-11T12:03:49.244Z,101933.59
2018-08-11T12:04:53.425Z,101932.72
2018-08-11T12:05:57.628Z,101938.63
2018-08-11T12:07:01.784Z,101936.41
2018-08-11T12:08:05.970Z,101927.10
2018-08-11T12:09:11.300Z,101928.77
2018-08-11T12:10:15.497Z,101927.92
2018-08-11T12:11:19.678Z,101929.83
2018-08-11T12:12:23.838Z,101929.14
2018-08-11T12:13:28.012Z,101925.81